Time;durP1;ratioP1;P1;durP2;ratioP2;P2;SDS_P1;SDS_P2;PMS_P1;PMS_P2;Temp;Humidity;BMP_temperature;BMP_pressure;BME280_temperature;BME280_humidity;BME280_pressure;Samples;Min_cycle;Max_cycle;Signal;HPM_P1;HPM_P2
2024/03/21 00:01:51;;;;;;;4.93;2.57;;;;;;;9.16;100.00;96577.47;4976946;28;20207;-71
2024/03/21 00:04:17;;;;;;;4.77;2.47;;;;;;;9.23;100.00;96573.22;4976654;28;20219;-69
2024/03/21 00:06:43;;;;;;;6.73;2.00;;;;;;;9.21;100.00;96583.88;4976609;28;20242;-69
2024/03/21 00:09:09;;;;;;;1.93;1.60;;;;;;;9.21;100.00;96581.25;4976898;28;20231;-70
2024/03/21 00:11:35;;;;;;;4.20;2.03;;;;;;;9.28;100.00;96581.47;4976768;28;20211;-69
2024/03/21 00:14:01;;;;;;;3.00;1.93;;;;;;;9.22;100.00;96576.84;4976740;28;20214;-69
2024/03/21 00:16:29;;;;;;;4.13;2.33;;;;;;;9.23;100.00;96570.59;4976216;28;20207;-70
2024/03/21 00:18:54;;;;;;;3.30;1.97;;;;;;;9.10;100.00;96573.69;4975992;28;20227;-69
2024/03/21 00:21:21;;;;;;;3.73;2.30;;;;;;;9.11;100.00;96575.31;4976379;28;20203;-71
2024/03/21 00:23:46;;;;;;;6.00;2.23;;;;;;;8.94;100.00;96572.78;4976958;28;20276;-69
2024/03/21 00:26:13;;;;;;;3.80;2.10;;;;;;;9.12;100.00;96576.13;4976972;28;20231;-71
2024/03/21 00:28:40;;;;;;;3.23;2.10;;;;;;;9.16;100.00;96577.47;4974226;28;20234;-70
2024/03/21 00:31:07;;;;;;;3.67;2.40;;;;;;;9.00;100.00;96582.69;4976373;28;20207;-70
2024/03/21 00:33:33;;;;;;;4.20;2.50;;;;;;;9.17;100.00;96584.38;4976809;28;20203;-71
2024/03/21 00:36:00;;;;;;;5.83;2.70;;;;;;;9.08;100.00;96580.06;4975697;28;20203;-68
2024/03/21 00:38:25;;;;;;;4.97;2.20;;;;;;;9.11;100.00;96574.50;4975717;28;20227;-70
2024/03/21 00:40:52;;;;;;;4.80;2.67;;;;;;;9.04;100.00;96578.75;4976027;28;20222;-71
2024/03/21 00:43:18;;;;;;;6.37;2.97;;;;;;;9.09;100.00;96582.53;4975947;28;20219;-70
2024/03/21 00:45:46;;;;;;;7.50;3.07;;;;;;;9.14;100.00;96576.81;4975992;28;20227;-71
2024/03/21 00:48:12;;;;;;;10.90;3.37;;;;;;;9.17;100.00;96577.28;4975046;28;20688;-70
2024/03/21 00:50:40;;;;;;;6.63;3.33;;;;;;;9.46;100.00;96569.00;4975048;28;20203;-69
2024/03/21 00:53:06;;;;;;;5.60;3.47;;;;;;;9.44;100.00;96578.84;4976334;28;20665;-71
2024/03/21 00:55:32;;;;;;;6.00;3.40;;;;;;;9.45;100.00;96564.72;4976129;28;20215;-69
2024/03/21 00:57:58;;;;;;;5.27;2.80;;;;;;;9.50;100.00;96570.31;4974956;28;20720;-71
2024/03/21 01:00:25;;;;;;;5.87;3.37;;;;;;;9.55;100.00;96568.03;4975427;28;20214;-69
2024/03/21 01:02:50;;;;;;;5.03;3.33;;;;;;;9.39;100.00;96568.00;4975970;28;20214;-71
2024/03/21 01:05:18;;;;;;;6.30;3.17;;;;;;;9.42;100.00;96570.28;4975228;28;20223;-70
2024/03/21 01:07:47;;;;;;;7.53;3.20;;;;;;;9.66;100.00;96567.69;4975050;28;20242;-71
2024/03/21 01:10:14;;;;;;;6.00;3.30;;;;;;;9.44;100.00;96565.69;4975854;28;20207;-69
2024/03/21 01:12:39;;;;;;;6.83;3.53;;;;;;;9.46;100.00;96561.91;4975726;28;20213;-70
2024/03/21 01:15:07;;;;;;;4.90;2.93;;;;;;;9.48;100.00;96561.75;4975468;28;20207;-70
2024/03/21 01:17:32;;;;;;;6.03;3.40;;;;;;;9.51;100.00;96558.78;4974782;28;20227;-71
2024/03/21 01:19:59;;;;;;;5.63;2.93;;;;;;;9.09;100.00;96561.50;4975960;28;21258;-70
2024/03/21 01:22:24;;;;;;;4.87;2.83;;;;;;;9.24;100.00;96553.81;4974704;28;20597;-71
2024/03/21 01:24:52;;;;;;;6.73;3.40;;;;;;;9.49;100.00;96548.44;4975966;28;20210;-69
2024/03/21 01:27:18;;;;;;;5.70;3.67;;;;;;;9.31;100.00;96541.69;4974411;28;20234;-69
2024/03/21 01:29:44;;;;;;;5.93;3.60;;;;;;;9.38;100.00;96542.66;4975455;28;20203;-70
2024/03/21 01:32:10;;;;;;;5.60;3.30;;;;;;;9.15;100.00;96547.72;4976046;28;20207;-70
2024/03/21 01:34:36;;;;;;;4.70;2.57;;;;;;;9.10;100.00;96546.56;4976060;28;20608;-71
2024/03/21 01:37:02;;;;;;;4.10;2.63;;;;;;;9.18;100.00;96550.03;4974322;28;20207;-70
2024/03/21 01:39:29;;;;;;;6.37;3.23;;;;;;;9.08;100.00;96547.72;4975175;28;20207;-69
2024/03/21 01:41:56;;;;;;;6.23;3.33;;;;;;;9.08;100.00;96546.72;4975000;28;20601;-70
2024/03/21 01:44:22;;;;;;;4.97;2.90;;;;;;;9.00;100.00;96545.88;4975318;28;21142;-70
2024/03/21 01:46:48;;;;;;;9.07;3.43;;;;;;;9.11;100.00;96538.53;4974615;28;20253;-71
2024/03/21 01:49:15;;;;;;;4.30;2.73;;;;;;;9.15;100.00;96553.00;4974829;28;20701;-71
2024/03/21 01:51:42;;;;;;;6.47;3.43;;;;;;;9.17;100.00;96551.00;4974909;28;20834;-71
2024/03/21 01:54:10;;;;;;;7.20;3.07;;;;;;;9.30;100.00;96545.28;4975412;28;20199;-71
2024/03/21 01:56:37;;;;;;;4.70;2.80;;;;;;;8.95;100.00;96550.78;4974366;28;20199;-70
2024/03/21 01:59:05;;;;;;;5.27;2.80;;;;;;;8.90;100.00;96550.44;4975467;28;20222;-71
2024/03/21 02:01:32;;;;;;;6.03;3.50;;;;;;;9.08;100.00;96546.72;4973957;28;20214;-70
2024/03/21 02:04:00;;;;;;;6.47;3.50;;;;;;;9.14;100.00;96545.28;4975579;28;20253;-71
2024/03/21 02:06:27;;;;;;;8.80;3.87;;;;;;;9.27;100.00;96543.00;4974624;28;20223;-70
2024/03/21 02:08:54;;;;;;;6.80;3.40;;;;;;;9.21;100.00;96538.38;4974432;28;20219;-70
2024/03/21 02:11:20;;;;;;;6.53;3.23;;;;;;;9.32;100.00;96538.06;4975031;28;20207;-70
2024/03/21 02:13:47;;;;;;;6.03;3.63;;;;;;;9.25;100.00;96537.06;4975188;28;20203;-71
2024/03/21 02:16:14;;;;;;;5.27;3.10;;;;;;;9.47;100.00;96525.91;4975330;28;20207;-69
2024/03/21 02:18:40;;;;;;;6.30;3.17;;;;;;;9.34;100.00;96525.56;4973837;28;20720;-70
2024/03/21 02:22:35;;;;;;;6.37;3.33;;;;;;;9.27;100.00;96527.22;4974898;28;20733;-70
2024/03/21 02:23:54;;;;;;;5.23;2.90;;;;;;;9.52;100.00;96531.50;4973955;28;20207;-71
2024/03/21 02:26:21;;;;;;;6.47;2.97;;;;;;;9.40;100.00;96532.81;4974617;28;20246;-71
2024/03/21 02:28:49;;;;;;;5.67;3.13;;;;;;;9.54;100.00;96526.91;4974675;28;20223;-71
2024/03/21 02:31:18;;;;;;;5.57;3.17;;;;;;;9.55;100.00;96526.75;4974806;28;20268;-69
2024/03/21 02:33:43;;;;;;;6.97;3.73;;;;;;;9.38;100.00;96525.09;4974306;28;20207;-71
2024/03/21 02:36:10;;;;;;;7.07;3.57;;;;;;;9.33;100.00;96526.53;4975233;28;20203;-70
2024/03/21 02:38:36;;;;;;;6.73;3.57;;;;;;;9.15;100.00;96524.06;4973342;28;20226;-71
2024/03/21 02:41:05;;;;;;;5.47;3.33;;;;;;;9.57;100.00;96523.94;4974797;28;20203;-69
2024/03/21 02:43:31;;;;;;;7.53;3.33;;;;;;;9.27;100.00;96528.03;4975596;28;20203;-71
2024/03/21 02:45:57;;;;;;;5.00;3.03;;;;;;;9.01;100.00;96526.47;4974717;28;20231;-69
2024/03/21 02:48:23;;;;;;;6.60;3.83;;;;;;;9.27;100.00;96532.47;4972978;28;20365;-68
2024/03/21 02:50:49;;;;;;;7.33;3.27;;;;;;;9.24;100.00;96517.84;4974839;28;20204;-71
2024/03/21 02:53:15;;;;;;;10.07;4.20;;;;;;;8.78;100.00;96514.94;4974090;28;20218;-69
2024/03/21 02:55:41;;;;;;;8.13;3.53;;;;;;;9.11;100.00;96522.75;4975099;28;20200;-69
2024/03/21 02:58:09;;;;;;;7.43;3.90;;;;;;;8.71;100.00;96523.63;4973264;28;20226;-71
2024/03/21 03:00:34;;;;;;;5.53;3.10;;;;;;;8.88;100.00;96518.22;4974526;28;20234;-70
2024/03/21 03:03:01;;;;;;;5.30;3.20;;;;;;;8.88;100.00;96520.88;4974431;28;20560;-70
2024/03/21 03:05:26;;;;;;;5.03;2.87;;;;;;;8.91;100.00;96525.81;4974250;28;20232;-71
2024/03/21 03:07:53;;;;;;;7.53;3.33;;;;;;;8.83;100.00;96523.13;4972765;28;20219;-68
2024/03/21 03:10:18;;;;;;;4.80;3.03;;;;;;;8.83;100.00;96523.13;4973399;28;20200;-70
2024/03/21 03:12:45;;;;;;;5.60;3.20;;;;;;;8.89;100.00;96522.50;4973152;28;20230;-70
2024/03/21 03:15:12;;;;;;;6.27;3.53;;;;;;;9.08;100.00;96526.69;4977109;28;20211;-69
2024/03/21 03:17:38;;;;;;;5.47;2.73;;;;;;;8.89;100.00;96527.78;4975704;28;21142;-70
2024/03/21 03:20:04;;;;;;;3.67;2.80;;;;;;;9.01;100.00;96523.84;4976299;28;20199;-68
2024/03/21 03:22:31;;;;;;;4.37;3.00;;;;;;;8.83;100.00;96523.13;4976786;28;20575;-71
2024/03/21 03:24:56;;;;;;;6.17;3.17;;;;;;;8.95;100.00;96521.03;4977003;28;20214;-71
2024/03/21 03:27:23;;;;;;;7.77;3.63;;;;;;;9.05;100.00;96524.38;4976828;28;20227;-70
2024/03/21 03:29:48;;;;;;;5.33;3.10;;;;;;;9.03;100.00;96524.53;4976068;28;20223;-71
2024/03/21 03:32:17;;;;;;;7.80;3.13;;;;;;;9.27;100.00;96532.47;4977143;28;20274;-71
2024/03/21 03:37:27;;;;;;;4.00;2.90;;;;;;;9.07;100.00;96528.47;4975887;28;20234;-73
2024/03/21 03:39:54;;;;;;;5.80;3.43;;;;;;;9.10;100.00;96522.91;4976656;28;20951;-72
2024/03/21 03:42:20;;;;;;;7.43;3.47;;;;;;;9.15;100.00;96525.84;4975926;28;20215;-71
2024/03/21 03:44:46;;;;;;;6.17;3.57;;;;;;;9.16;100.00;96525.72;4976716;28;20207;-71
2024/03/21 03:47:13;;;;;;;6.03;2.73;;;;;;;9.15;100.00;96526.69;4976130;28;20238;-72
2024/03/21 03:49:41;;;;;;;5.17;2.80;;;;;;;9.33;100.00;96526.53;4975731;28;20199;-71
2024/03/21 03:52:07;;;;;;;5.00;2.90;;;;;;;9.00;100.00;96526.66;4976397;28;20605;-72
2024/03/21 03:54:33;;;;;;;6.30;3.40;;;;;;;9.16;100.00;96527.50;4977568;28;20203;-71
2024/03/21 03:56:59;;;;;;;7.33;3.33;;;;;;;9.11;100.00;96528.00;4975274;28;20206;-72
2024/03/21 03:59:25;;;;;;;5.53;3.60;;;;;;;9.16;100.00;96530.13;4976645;28;20586;-72
2024/03/21 04:01:52;;;;;;;6.87;3.47;;;;;;;9.31;100.00;96533.78;4976335;28;20204;-72
2024/03/21 04:04:18;;;;;;;8.53;3.20;;;;;;;9.25;100.00;96529.16;4976255;28;20218;-72
2024/03/21 04:06:46;;;;;;;6.67;3.63;;;;;;;9.49;100.00;96516.06;4975843;28;20234;-72
2024/03/21 04:09:12;;;;;;;5.77;3.13;;;;;;;9.52;100.00;96520.97;4976111;28;20680;-72
2024/03/21 04:11:38;;;;;;;6.07;3.53;;;;;;;9.51;100.00;96509.66;4976080;28;20204;-71
2024/03/21 04:14:04;;;;;;;6.73;3.20;;;;;;;9.52;100.00;96521.81;4975913;28;20211;-71
2024/03/21 04:16:30;;;;;;;6.17;3.40;;;;;;;9.68;100.00;96517.34;4975456;28;20202;-71
2024/03/21 04:18:56;;;;;;;4.70;3.03;;;;;;;9.75;100.00;96523.63;4976093;28;20223;-71
2024/03/21 04:21:22;;;;;;;7.07;3.20;;;;;;;9.75;100.00;96507.84;4975856;28;20206;-71
2024/03/21 04:23:50;;;;;;;12.67;3.97;;;;;;;10.06;100.00;96511.44;4976458;28;20213;-72
2024/03/21 04:26:15;;;;;;;5.20;3.30;;;;;;;9.91;100.00;96520.16;4976526;28;20595;-72
2024/03/21 04:28:42;;;;;;;5.57;3.53;;;;;;;9.91;100.00;96528.06;4975885;28;20226;-71
2024/03/21 04:31:07;;;;;;;5.30;3.20;;;;;;;10.06;100.00;96527.25;4976189;28;21284;-73
2024/03/21 04:33:34;;;;;;;4.27;3.03;;;;;;;10.00;100.00;96522.63;4976610;28;20207;-72
2024/03/21 04:36:01;;;;;;;5.20;3.20;;;;;;;10.09;100.00;96531.34;4976416;28;20199;-72
2024/03/21 04:38:27;;;;;;;4.83;2.97;;;;;;;10.16;100.00;96530.53;4975518;28;20223;-72
2024/03/21 04:40:55;;;;;;;6.03;3.47;;;;;;;10.39;100.00;96528.84;4976283;28;20199;-73
2024/03/21 04:43:21;;;;;;;6.87;3.33;;;;;;;10.27;100.00;96535.44;4976109;28;20293;-71
2024/03/21 04:45:48;;;;;;;5.30;2.80;;;;;;;10.31;100.00;96533.28;4976005;28;20250;-72
2024/03/21 04:48:14;;;;;;;6.53;2.97;;;;;;;10.42;100.00;96536.38;4974614;28;20922;-71
2024/03/21 04:50:40;;;;;;;5.00;2.87;;;;;;;10.40;100.00;96538.38;4976670;28;20293;-72
2024/03/21 04:53:06;;;;;;;4.20;2.90;;;;;;;10.38;100.00;96537.72;4974661;28;20215;-73
2024/03/21 04:55:32;;;;;;;5.30;3.17;;;;;;;10.48;100.00;96544.44;4976502;28;21126;-73
2024/03/21 04:58:00;;;;;;;4.83;2.90;;;;;;;10.73;100.00;96537.28;4975388;28;20223;-71
2024/03/21 05:00:25;;;;;;;6.03;3.50;;;;;;;10.58;100.00;96547.72;4975948;28;20195;-72
2024/03/21 05:02:52;;;;;;;3.57;2.53;;;;;;;10.50;100.00;96549.53;4975814;28;20214;-72
2024/03/21 05:05:17;;;;;;;5.13;2.90;;;;;;;10.62;100.00;96543.75;4977015;28;20206;-71
2024/03/21 05:07:44;;;;;;;6.07;3.03;;;;;;;10.67;100.00;96543.25;4974524;28;21050;-73
2024/03/21 05:10:11;;;;;;;5.97;2.87;;;;;;;10.64;100.00;96543.56;4976585;28;20207;-73
2024/03/21 05:12:37;;;;;;;8.07;3.17;;;;;;;10.65;100.00;96540.75;4975824;28;20207;-73
2024/03/21 05:15:05;;;;;;;5.53;2.83;;;;;;;10.89;100.00;96542.50;4975743;28;20211;-71
2024/03/21 05:17:32;;;;;;;5.97;2.73;;;;;;;10.71;100.00;96550.63;4974413;28;20223;-71
2024/03/21 05:19:57;;;;;;;5.73;3.20;;;;;;;10.80;100.00;96539.06;4976115;28;20203;-71
2024/03/21 05:22:24;;;;;;;4.47;3.00;;;;;;;10.83;100.00;96535.25;4975250;28;20215;-72
2024/03/21 05:24:49;;;;;;;5.57;3.10;;;;;;;10.76;100.00;96543.03;4975431;28;20277;-71
2024/03/21 05:27:19;;;;;;;5.87;2.90;;;;;;;10.81;100.00;96547.81;4975228;28;20230;-71
2024/03/21 05:29:45;;;;;;;5.27;2.93;;;;;;;10.85;100.00;96538.56;4975705;28;20203;-72
2024/03/21 05:32:13;;;;;;;5.10;2.83;;;;;;;10.87;100.00;96549.75;4975505;28;20599;-73
2024/03/21 05:34:38;;;;;;;6.03;3.17;;;;;;;10.83;100.00;96554.53;4974467;28;20215;-71
2024/03/21 05:37:05;;;;;;;5.33;2.80;;;;;;;10.56;100.00;96556.78;4974750;28;20199;-71
2024/03/21 05:39:31;;;;;;;5.30;2.90;;;;;;;10.80;100.00;96561.97;4974571;28;20205;-71
2024/03/21 05:41:58;;;;;;;4.23;2.73;;;;;;;10.84;100.00;96553.53;4975235;28;20211;-71
2024/03/21 05:44:23;;;;;;;4.17;2.70;;;;;;;10.90;100.00;96552.88;4975311;28;20577;-71
2024/03/21 05:46:52;;;;;;;5.90;2.80;;;;;;;11.17;100.00;96553.22;4974438;28;20230;-72
2024/03/21 05:49:19;;;;;;;6.27;3.13;;;;;;;11.10;100.00;96546.19;4974170;28;20210;-72
2024/03/21 05:51:48;;;;;;;6.07;3.70;;;;;;;10.91;100.00;96545.75;4975612;28;20257;-71
2024/03/21 05:54:13;;;;;;;8.70;3.57;;;;;;;11.01;100.00;96544.59;4975333;28;20207;-71
2024/03/21 05:56:40;;;;;;;10.20;4.97;;;;;;;11.13;100.00;96557.19;4973974;28;20199;-73
2024/03/21 05:59:05;;;;;;;12.27;5.50;;;;;;;11.35;100.00;96555.59;4975262;28;20227;-72
2024/03/21 06:01:33;;;;;;;6.63;3.83;;;;;;;11.23;100.00;96557.81;4975093;28;20920;-71
2024/03/21 06:03:59;;;;;;;11.30;4.40;;;;;;;11.19;100.00;96559.16;4974047;28;20565;-71
2024/03/21 06:06:27;;;;;;;4.77;3.33;;;;;;;11.65;100.00;96548.50;4975511;28;20234;-71
2024/03/21 06:08:53;;;;;;;6.93;3.80;;;;;;;11.59;100.00;96545.75;4975126;28;20709;-70
2024/03/21 06:11:19;;;;;;;7.73;4.07;;;;;;;11.23;100.00;96549.91;4974816;28;20206;-71
2024/03/21 06:13:45;;;;;;;15.13;5.00;;;;;;;11.53;100.00;96540.34;4975272;28;20204;-71
2024/03/21 06:16:11;;;;;;;17.67;6.90;;;;;;;11.52;100.00;96546.63;4975274;28;20222;-71
2024/03/21 06:18:37;;;;;;;14.73;6.10;;;;;;;11.82;100.00;96552.66;4973622;28;21193;-73
2024/03/21 06:21:04;;;;;;;11.10;6.03;;;;;;;12.06;100.00;96557.75;4974515;28;20294;-71
2024/03/21 06:23:31;;;;;;;9.47;5.30;;;;;;;11.96;100.00;96551.06;4975153;28;20200;-73
2024/03/21 06:25:58;;;;;;;10.43;4.10;;;;;;;11.92;100.00;96552.44;4974353;28;20218;-74
2024/03/21 06:28:23;;;;;;;8.47;4.80;;;;;;;12.12;100.00;96556.19;4974682;28;21122;-72
2024/03/21 06:30:50;;;;;;;5.63;3.80;;;;;;;11.86;100.00;96556.59;4974218;28;20207;-73
2024/03/21 06:33:15;;;;;;;4.17;2.93;;;;;;;12.03;100.00;96573.13;4975571;28;21175;-72
2024/03/21 06:35:42;;;;;;;6.67;4.13;;;;;;;12.05;100.00;96577.22;4973882;28;20203;-71
2024/03/21 06:38:07;;;;;;;8.33;3.73;;;;;;;12.15;100.00;96577.81;4970527;28;20230;-73
2024/03/21 06:40:36;;;;;;;8.70;4.73;;;;;;;12.59;100.00;96574.25;4972428;28;20204;-72
2024/03/21 06:43:01;;;;;;;7.53;4.07;;;;;;;12.46;100.00;96576.69;4970792;28;20653;-71
2024/03/21 06:45:28;;;;;;;7.07;4.33;;;;;;;12.52;100.00;96575.97;4973410;28;20345;-73
2024/03/21 06:47:54;;;;;;;6.00;3.27;;;;;;;12.62;100.00;96581.00;4974290;28;20219;-73
2024/03/21 06:50:21;;;;;;;6.33;3.73;;;;;;;12.66;100.00;96579.63;4975894;28;21050;-73
2024/03/21 06:52:49;;;;;;;6.73;3.63;;;;;;;12.82;100.00;96581.09;4976243;28;20841;-73
2024/03/21 06:55:16;;;;;;;15.23;4.40;;;;;;;12.92;100.00;96594.09;4976835;28;20729;-71
2024/03/21 06:57:46;;;;;;;8.27;3.43;;;;;;;13.14;100.00;96596.63;4974790;28;20227;-72
2024/03/21 07:00:13;;;;;;;8.17;3.97;;;;;;;13.10;100.00;96592.72;4976115;28;20653;-74
2024/03/21 07:02:39;;;;;;;6.17;3.30;;;;;;;12.98;100.00;96590.69;4975706;28;20208;-74
2024/03/21 07:05:07;;;;;;;9.20;4.10;;;;;;;13.03;100.00;96598.91;4976300;28;20670;-74
2024/03/21 07:07:32;;;;;;;7.23;3.30;;;;;;;13.32;100.00;96590.97;4975572;28;20223;-74
2024/03/21 07:09:59;;;;;;;7.87;3.60;;;;;;;13.40;100.00;96589.84;4976518;28;20211;-74
2024/03/21 07:12:24;;;;;;;6.30;3.57;;;;;;;13.55;100.00;96601.19;4976542;28;20214;-71
2024/03/21 07:14:53;;;;;;;12.17;5.80;;;;;;;13.52;100.00;96598.94;4977270;28;20207;-72
2024/03/21 07:17:19;;;;;;;12.67;5.67;;;;;;;13.58;100.00;96600.84;4975988;28;21005;-73
2024/03/21 07:19:45;;;;;;;12.53;4.63;;;;;;;13.48;100.00;96605.63;4975183;28;20210;-71
2024/03/21 07:22:11;;;;;;;10.63;5.60;;;;;;;13.42;100.00;96609.00;4976061;28;20212;-71
2024/03/21 07:24:37;;;;;;;8.87;4.43;;;;;;;13.54;100.00;96610.19;4976985;28;20227;-72
2024/03/21 07:27:04;;;;;;;7.93;3.63;;;;;;;13.72;100.00;96613.22;4974448;28;20775;-74
2024/03/21 07:29:30;;;;;;;7.47;4.00;;;;;;;13.26;100.00;96618.16;4976220;28;20955;-74
2024/03/21 07:31:58;;;;;;;5.60;2.87;;;;;;;13.63;100.00;96614.34;4975693;28;20208;-72
2024/03/21 07:34:25;;;;;;;5.10;2.93;;;;;;;13.81;100.00;96619.22;4975947;28;20221;-72
2024/03/21 07:36:51;;;;;;;6.90;2.53;;;;;;;13.42;100.00;96630.16;4974965;28;20342;-71
2024/03/21 07:39:19;;;;;;;6.93;2.70;;;;;;;13.44;100.00;96632.63;4975695;28;20215;-71
2024/03/21 07:41:46;;;;;;;5.83;3.00;;;;;;;13.48;100.00;96639.22;4975218;28;20234;-73
2024/03/21 07:44:12;;;;;;;4.23;2.80;;;;;;;13.59;100.00;96652.81;4974810;28;20356;-72
2024/03/21 07:46:38;;;;;;;8.53;2.57;;;;;;;13.50;100.00;96656.56;4975473;28;20699;-73
2024/03/21 07:49:07;;;;;;;5.73;3.23;;;;;;;13.79;100.00;96647.75;4975247;28;20328;-74
2024/03/21 07:51:33;;;;;;;6.73;3.37;;;;;;;13.22;100.00;96653.94;4974484;28;20218;-72
2024/03/21 07:53:59;;;;;;;4.93;2.67;;;;;;;12.96;100.00;96656.22;4974813;28;20967;-71
2024/03/21 07:56:25;;;;;;;4.40;2.97;;;;;;;13.32;100.00;96659.78;4974672;28;20204;-71
2024/03/21 07:58:51;;;;;;;4.10;2.77;;;;;;;13.27;100.00;96662.94;4974185;28;20232;-71
2024/03/21 08:01:18;;;;;;;4.00;2.70;;;;;;;13.37;100.00;96662.69;4974108;28;20213;-73
2024/03/21 08:03:43;;;;;;;4.17;2.43;;;;;;;13.11;100.00;96659.66;4975617;28;20203;-71
2024/03/21 08:06:11;;;;;;;5.93;2.87;;;;;;;13.24;100.00;96662.50;4974836;28;20214;-71
2024/03/21 08:08:37;;;;;;;4.57;2.40;;;;;;;13.05;100.00;96663.06;4973506;28;20219;-70
2024/03/21 08:11:04;;;;;;;5.27;2.20;;;;;;;13.29;100.00;96665.41;4974142;28;20210;-74
2024/03/21 08:13:29;;;;;;;2.70;1.77;;;;;;;13.29;100.00;96674.19;4974924;28;20207;-71
2024/03/21 08:15:56;;;;;;;4.77;2.53;;;;;;;13.15;100.00;96690.03;4974110;28;20980;-74
2024/03/21 08:18:22;;;;;;;6.10;2.40;;;;;;;13.31;100.00;96684.59;4974936;28;20239;-73
2024/03/21 08:20:49;;;;;;;7.73;3.43;;;;;;;13.34;100.00;96689.50;4974307;28;20218;-74
2024/03/21 08:23:16;;;;;;;6.67;3.57;;;;;;;13.43;100.00;96682.13;4974970;28;20218;-72
2024/03/21 08:25:42;;;;;;;9.13;4.93;;;;;;;13.25;100.00;96686.16;4975235;28;20204;-71
2024/03/21 08:28:08;;;;;;;6.70;3.87;;;;;;;13.07;100.00;96690.13;4974163;28;20231;-72
2024/03/21 08:30:35;;;;;;;11.20;4.90;;;;;;;13.10;100.00;96692.44;4976172;28;20207;-73
2024/03/21 08:33:00;;;;;;;6.63;3.30;;;;;;;12.93;100.00;96701.53;4975482;28;20214;-71
2024/03/21 08:35:27;;;;;;;6.53;3.37;;;;;;;13.06;100.00;96712.31;4974648;28;20211;-73
2024/03/21 08:37:52;;;;;;;8.23;3.87;;;;;;;13.01;100.00;96717.34;4974485;28;20219;-71
2024/03/21 08:40:20;;;;;;;6.50;4.03;;;;;;;12.80;100.00;96718.00;4974307;28;20230;-71
2024/03/21 08:42:46;;;;;;;7.23;3.37;;;;;;;12.45;100.00;96723.06;4975212;28;20199;-71
2024/03/21 08:45:12;;;;;;;8.83;4.40;;;;;;;12.81;100.00;96718.81;4974513;28;20218;-72
2024/03/21 08:47:38;;;;;;;8.00;3.90;;;;;;;12.68;100.00;96718.59;4974197;28;20309;-72
2024/03/21 08:50:05;;;;;;;7.90;3.93;;;;;;;12.66;100.00;96720.56;4973830;28;20218;-72
2024/03/21 08:52:31;;;;;;;8.20;4.17;;;;;;;12.73;100.00;96718.88;4972797;28;20209;-71
2024/03/21 08:54:58;;;;;;;7.67;4.13;;;;;;;12.61;100.00;96720.28;4973704;28;20211;-71
2024/03/21 08:57:25;;;;;;;8.20;4.23;;;;;;;12.81;100.00;96716.16;4974111;28;20223;-71
2024/03/21 08:59:51;;;;;;;11.93;5.23;;;;;;;12.81;100.00;96698.47;4974176;28;20608;-71
2024/03/21 09:02:17;;;;;;;11.70;5.57;;;;;;;12.73;100.00;96702.19;4974593;28;20207;-71
2024/03/21 09:04:44;;;;;;;9.20;5.57;;;;;;;12.67;100.00;96710.84;4973683;28;20691;-70
2024/03/21 09:07:09;;;;;;;9.13;4.87;;;;;;;12.69;100.00;96714.97;4973427;28;20250;-70
2024/03/21 09:09:36;;;;;;;7.60;4.50;;;;;;;12.81;100.00;96718.81;4973715;28;20667;-70
2024/03/21 09:12:03;;;;;;;8.13;4.53;;;;;;;12.82;100.00;96707.22;4973901;28;20211;-72
2024/03/21 09:14:31;;;;;;;9.93;4.93;;;;;;;13.10;100.00;96718.91;4973347;28;20199;-71
2024/03/21 09:16:56;;;;;;;9.87;5.13;;;;;;;13.02;100.00;96717.16;4973967;28;20222;-70
2024/03/21 09:19:23;;;;;;;7.73;4.83;;;;;;;13.02;100.00;96725.09;4974273;28;20957;-71
2024/03/21 09:21:48;;;;;;;9.27;4.40;;;;;;;12.96;100.00;96728.44;4972470;28;20199;-71
2024/03/21 09:24:15;;;;;;;10.23;4.63;;;;;;;13.03;100.00;96717.97;4973885;28;20215;-70
2024/03/21 09:26:41;;;;;;;7.73;4.17;;;;;;;12.95;100.00;96720.69;4973813;28;20219;-72
2024/03/21 09:29:08;;;;;;;8.27;4.00;;;;;;;12.71;100.00;96723.50;4971953;28;20231;-71
2024/03/21 09:31:35;;;;;;;10.07;4.53;;;;;;;12.91;100.00;96737.94;4972638;28;20207;-71
2024/03/21 09:34:02;;;;;;;6.87;4.20;;;;;;;13.00;100.00;96729.72;4972815;28;20207;-71
2024/03/21 09:36:29;;;;;;;10.60;4.73;;;;;;;13.02;100.00;96726.91;4971791;28;20211;-71
2024/03/21 09:38:55;;;;;;;7.93;3.90;;;;;;;13.01;100.00;96720.00;4972824;28;20569;-71
2024/03/21 09:41:21;;;;;;;10.40;4.00;;;;;;;13.09;100.00;96719.91;4972643;28;20214;-72
2024/03/21 09:43:48;;;;;;;8.93;3.83;;;;;;;12.89;100.00;96713.47;4973861;28;20207;-70
2024/03/21 09:46:16;;;;;;;11.03;4.17;;;;;;;13.08;100.00;96716.41;4972406;28;20229;-71
2024/03/21 09:48:44;;;;;;;6.63;3.60;;;;;;;12.97;100.00;96723.97;4972056;28;20329;-72
2024/03/21 09:51:16;;;;;;;6.53;3.43;;;;;;;13.45;100.00;96711.88;4973547;28;20310;-71
2024/03/21 09:53:43;;;;;;;10.40;3.73;;;;;;;12.86;100.00;96709.34;4972514;28;20208;-72
2024/03/21 09:56:09;;;;;;;6.57;3.47;;;;;;;12.98;100.00;96715.03;4973372;28;20217;-71
2024/03/21 09:58:36;;;;;;;12.80;4.03;;;;;;;13.27;100.00;96717.72;4973105;28;20889;-71
2024/03/21 10:01:03;;;;;;;6.83;3.67;;;;;;;13.46;100.00;96718.81;4972717;28;20691;-71
2024/03/21 10:03:29;;;;;;;8.93;4.10;;;;;;;13.58;100.00;96725.31;4972410;28;20293;-72
2024/03/21 10:06:04;;;;;;;9.50;3.83;;;;;;;13.93;100.00;96716.56;4973468;28;20200;-71
2024/03/21 10:08:32;;;;;;;7.53;3.60;;;;;;;13.77;100.00;96714.16;4972077;28;20226;-71
2024/03/21 10:10:58;;;;;;;8.57;3.40;;;;;;;13.82;100.00;96716.22;4972984;28;20204;-71
2024/03/21 10:13:24;;;;;;;5.67;3.37;;;;;;;13.90;100.00;96722.25;4973569;28;20226;-71
2024/03/21 10:15:50;;;;;;;8.33;3.93;;;;;;;13.74;100.00;96722.44;4972344;28;20716;-71
2024/03/21 10:18:17;;;;;;;7.83;3.23;;;;;;;13.76;100.00;96720.44;4972258;28;20223;-72
2024/03/21 10:20:42;;;;;;;6.37;3.30;;;;;;;13.76;100.00;96716.97;4973079;28;20203;-73
2024/03/21 10:23:16;;;;;;;5.63;3.07;;;;;;;14.04;100.00;96721.41;4976388;28;20589;-70
2024/03/21 10:25:42;;;;;;;5.83;3.47;;;;;;;13.98;100.00;96720.31;4976582;28;20221;-72
2024/03/21 10:28:16;;;;;;;4.80;2.77;;;;;;;13.98;100.00;96721.34;4975260;28;20245;-71
2024/03/21 10:30:43;;;;;;;7.97;3.60;;;;;;;14.03;100.00;96731.16;4976629;28;20205;-72
2024/03/21 10:33:16;;;;;;;5.27;3.07;;;;;;;14.36;100.00;96724.44;4975764;28;20207;-71
2024/03/21 10:35:42;;;;;;;5.63;3.43;;;;;;;13.80;100.00;96726.22;4977423;28;20314;-71
2024/03/21 10:38:13;;;;;;;7.33;3.53;;;;;;;14.26;100.00;96715.97;4975486;28;20237;-72
2024/03/21 10:40:46;;;;;;;6.10;3.70;;;;;;;14.29;100.00;96720.88;4976849;28;20672;-71
2024/03/21 10:43:16;;;;;;;8.97;4.43;;;;;;;14.31;100.00;96720.72;4975932;28;20214;-74
2024/03/21 10:45:43;;;;;;;7.30;3.60;;;;;;;14.29;100.00;96730.69;4976036;28;20280;-74
2024/03/21 10:48:26;;;;;;;6.50;3.60;;;;;;;14.46;100.00;96724.13;4974932;28;20251;-72
2024/03/21 10:50:52;;;;;;;5.90;3.70;;;;;;;14.21;100.00;96725.50;4976888;28;20208;-71
2024/03/21 10:53:20;;;;;;;5.33;3.43;;;;;;;14.33;100.00;96727.47;4975843;28;20208;-70
2024/03/21 10:55:48;;;;;;;5.40;3.00;;;;;;;14.28;100.00;96735.16;4975180;28;20227;-71
2024/03/21 10:58:17;;;;;;;6.87;4.03;;;;;;;14.23;100.00;96728.75;4973792;28;20280;-73
2024/03/21 11:00:49;;;;;;;5.73;3.57;;;;;;;14.41;100.00;96723.84;4974682;28;20211;-70
2024/03/21 11:03:16;;;;;;;7.17;3.40;;;;;;;14.35;100.00;96722.78;4976060;28;20199;-70
2024/03/21 11:05:42;;;;;;;7.23;3.83;;;;;;;14.63;100.00;96725.53;4976350;28;20204;-71
2024/03/21 11:08:27;;;;;;;7.97;3.43;;;;;;;14.92;100.00;96720.91;4976106;28;20258;-73
2024/03/21 11:10:55;;;;;;;6.73;3.87;;;;;;;14.70;100.00;96717.44;4976780;28;20229;-73
2024/03/21 11:13:24;;;;;;;7.87;4.43;;;;;;;15.01;100.00;96723.22;4975402;28;20774;-73
2024/03/21 11:15:50;;;;;;;5.60;3.57;;;;;;;15.17;100.00;96738.84;4976477;28;20214;-71
2024/03/21 11:18:17;;;;;;;6.63;3.37;;;;;;;15.24;100.00;96735.25;4976006;28;20310;-74
2024/03/21 11:20:42;;;;;;;5.87;3.30;;;;;;;15.09;100.00;96733.69;4976005;28;20213;-70
2024/03/21 11:23:12;;;;;;;5.27;3.23;;;;;;;15.36;100.00;96732.88;4976890;28;20203;-70
2024/03/21 11:25:38;;;;;;;5.67;3.70;;;;;;;15.23;100.00;96727.47;4977299;28;20211;-70
2024/03/21 11:28:06;;;;;;;7.03;4.07;;;;;;;15.35;100.00;96725.94;4975722;28;20246;-72